sensor_id;sensor_type;location;lat;lon;timestamp;pressure;altitude;pressure_sealevel;temperature;humidity
23677;BME280;31493;49.058;12.190;2022-07-10T00:00:40;96509.97;;;15.55;100.00
23677;BME280;31493;49.058;12.190;2022-07-10T00:03:09;96519.72;;;15.53;100.00
23677;BME280;31493;49.058;12.190;2022-07-10T00:05:36;96514.09;;;15.58;100.00
23677;BME280;31493;49.058;12.190;2022-07-10T00:08:03;96505.94;;;15.51;100.00
23677;BME280;31493;49.058;12.190;2022-07-10T00:10:30;96501.13;;;15.47;99.65
23677;BME280;31493;49.058;12.190;2022-07-10T00:12:59;96503.00;;;15.45;98.41
23677;BME280;31493;49.058;12.190;2022-07-10T00:15:26;96507.56;;;15.31;99.13
23677;BME280;31493;49.058;12.190;2022-07-10T00:17:53;96511.81;;;15.21;100.00
23677;BME280;31493;49.058;12.190;2022-07-10T00:20:21;96508.66;;;15.18;100.00
23677;BME280;31493;49.058;12.190;2022-07-10T00:22:49;96503.78;;;15.13;100.00
23677;BME280;31493;49.058;12.190;2022-07-10T00:25:16;96499.75;;;15.09;100.00
23677;BME280;31493;49.058;12.190;2022-07-10T00:27:43;96505.84;;;14.98;100.00
23677;BME280;31493;49.058;12.190;2022-07-10T00:30:10;96510.59;;;14.93;100.00
23677;BME280;31493;49.058;12.190;2022-07-10T00:32:38;96511.41;;;14.94;100.00
23677;BME280;31493;49.058;12.190;2022-07-10T00:35:06;96509.03;;;15.02;100.00
23677;BME280;31493;49.058;12.190;2022-07-10T00:37:35;96502.84;;;15.03;100.00
23677;BME280;31493;49.058;12.190;2022-07-10T00:40:04;96502.50;;;14.96;100.00
23677;BME280;31493;49.058;12.190;2022-07-10T00:42:31;96500.16;;;15.04;100.00
23677;BME280;31493;49.058;12.190;2022-07-10T00:44:59;96499.66;;;15.11;100.00
23677;BME280;31493;49.058;12.190;2022-07-10T00:47:26;96495.38;;;15.10;100.00
23677;BME280;31493;49.058;12.190;2022-07-10T00:49:53;96491.72;;;15.12;100.00
23677;BME280;31493;49.058;12.190;2022-07-10T00:52:21;96495.84;;;15.15;100.00
23677;BME280;31493;49.058;12.190;2022-07-10T00:54:50;96495.63;;;15.18;99.87
23677;BME280;31493;49.058;12.190;2022-07-10T00:57:18;96488.63;;;15.18;100.00
23677;BME280;31493;49.058;12.190;2022-07-10T00:59:45;96488.16;;;15.13;100.00
23677;BME280;31493;49.058;12.190;2022-07-10T01:02:13;96492.28;;;15.16;100.00
23677;BME280;31493;49.058;12.190;2022-07-10T01:04:41;96490.69;;;15.47;100.00
23677;BME280;31493;49.058;12.190;2022-07-10T01:07:08;96482.16;;;15.33;99.16
23677;BME280;31493;49.058;12.190;2022-07-10T01:09:36;96491.06;;;15.31;100.00
23677;BME280;31493;49.058;12.190;2022-07-10T01:12:06;96482.16;;;15.33;100.00
23677;BME280;31493;49.058;12.190;2022-07-10T01:14:33;96484.75;;;15.33;100.00
23677;BME280;31493;49.058;12.190;2022-07-10T01:17:04;96477.44;;;15.27;100.00
23677;BME280;31493;49.058;12.190;2022-07-10T01:19:31;96486.09;;;15.28;100.00
23677;BME280;31493;49.058;12.190;2022-07-10T01:22:00;96481.00;;;15.26;100.00
23677;BME280;31493;49.058;12.190;2022-07-10T01:24:27;96486.09;;;15.28;100.00
23677;BME280;31493;49.058;12.190;2022-07-10T01:26:54;96478.03;;;15.31;99.45
23677;BME280;31493;49.058;12.190;2022-07-10T01:29:21;96485.38;;;15.26;100.00
23677;BME280;31493;49.058;12.190;2022-07-10T01:31:48;96482.78;;;15.26;100.00
23677;BME280;31493;49.058;12.190;2022-07-10T01:34:16;96477.09;;;15.21;100.00
23677;BME280;31493;49.058;12.190;2022-07-10T01:36:43;96484.59;;;15.14;100.00
23677;BME280;31493;49.058;12.190;2022-07-10T01:39:12;96477.72;;;15.13;100.00
23677;BME280;31493;49.058;12.190;2022-07-10T01:41:39;96485.19;;;15.07;100.00
23677;BME280;31493;49.058;12.190;2022-07-10T01:44:06;96483.69;;;14.93;100.00
23677;BME280;31493;49.058;12.190;2022-07-10T01:46:33;96484.72;;;15.01;100.00
23677;BME280;31493;49.058;12.190;2022-07-10T01:49:00;96482.38;;;14.98;100.00
23677;BME280;31493;49.058;12.190;2022-07-10T01:51:27;96482.38;;;14.98;100.00
23677;BME280;31493;49.058;12.190;2022-07-10T01:53:54;96472.19;;;14.84;100.00
23677;BME280;31493;49.058;12.190;2022-07-10T01:56:23;96477.53;;;14.94;100.00
23677;BME280;31493;49.058;12.190;2022-07-10T01:58:50;96466.88;;;14.86;100.00
23677;BME280;31493;49.058;12.190;2022-07-10T02:01:17;96476.47;;;14.74;100.00
23677;BME280;31493;49.058;12.190;2022-07-10T02:03:44;96473.88;;;14.74;100.00
23677;BME280;31493;49.058;12.190;2022-07-10T02:06:29;96467.03;;;14.62;100.00
23677;BME280;31493;49.058;12.190;2022-07-10T02:08:56;96461.56;;;14.54;100.00
23677;BME280;31493;49.058;12.190;2022-07-10T02:11:24;96472.09;;;14.52;100.00
23677;BME280;31493;49.058;12.190;2022-07-10T02:13:51;96463.81;;;14.58;100.00
23677;BME280;31493;49.058;12.190;2022-07-10T02:16:18;96467.13;;;14.49;100.00
23677;BME280;31493;49.058;12.190;2022-07-10T02:18:45;96472.44;;;14.47;100.00
23677;BME280;31493;49.058;12.190;2022-07-10T02:21:12;96472.88;;;14.41;100.00
23677;BME280;31493;49.058;12.190;2022-07-10T02:23:39;96476.56;;;14.39;100.00
23677;BME280;31493;49.058;12.190;2022-07-10T02:26:07;96474.19;;;14.36;100.00
23677;BME280;31493;49.058;12.190;2022-07-10T02:28:35;96486.00;;;14.29;100.00
23677;BME280;31493;49.058;12.190;2022-07-10T02:31:03;96482.00;;;14.24;100.00
23677;BME280;31493;49.058;12.190;2022-07-10T02:33:30;96481.97;;;14.13;100.00
23677;BME280;31493;49.058;12.190;2022-07-10T02:35:57;96480.66;;;14.08;100.00
23677;BME280;31493;49.058;12.190;2022-07-10T02:38:24;96477.66;;;13.90;100.00
23677;BME280;31493;49.058;12.190;2022-07-10T02:40:51;96484.19;;;13.95;100.00
23677;BME280;31493;49.058;12.190;2022-07-10T02:43:18;96481.72;;;13.94;100.00
23677;BME280;31493;49.058;12.190;2022-07-10T02:45:46;96475.44;;;13.96;100.00
23677;BME280;31493;49.058;12.190;2022-07-10T02:48:14;96471.50;;;13.91;100.00
23677;BME280;31493;49.058;12.190;2022-07-10T02:50:41;96470.53;;;13.81;100.00
23677;BME280;31493;49.058;12.190;2022-07-10T02:53:08;96479.91;;;13.83;100.00
23677;BME280;31493;49.058;12.190;2022-07-10T02:55:35;96481.41;;;13.75;100.00
23677;BME280;31493;49.058;12.190;2022-07-10T02:58:02;96476.22;;;13.86;100.00
23677;BME280;31493;49.058;12.190;2022-07-10T03:00:29;96489.81;;;13.78;100.00
23677;BME280;31493;49.058;12.190;2022-07-10T03:02:58;96491.06;;;13.61;100.00
23677;BME280;31493;49.058;12.190;2022-07-10T03:05:25;96485.41;;;13.67;100.00
23677;BME280;31493;49.058;12.190;2022-07-10T03:07:52;96490.72;;;13.66;100.00
23677;BME280;31493;49.058;12.190;2022-07-10T03:10:19;96495.44;;;13.61;100.00
23677;BME280;31493;49.058;12.190;2022-07-10T03:12:46;96490.47;;;13.58;100.00
23677;BME280;31493;49.058;12.190;2022-07-10T03:15:14;96487.94;;;13.45;100.00
23677;BME280;31493;49.058;12.190;2022-07-10T03:17:41;96492.13;;;13.35;100.00
23677;BME280;31493;49.058;12.190;2022-07-10T03:20:10;96485.38;;;13.32;100.00
23677;BME280;31493;49.058;12.190;2022-07-10T03:22:37;96477.16;;;13.50;100.00
23677;BME280;31493;49.058;12.190;2022-07-10T03:25:05;96482.09;;;13.41;100.00
23677;BME280;31493;49.058;12.190;2022-07-10T03:27:32;96480.59;;;13.50;100.00
23677;BME280;31493;49.058;12.190;2022-07-10T03:29:59;96493.84;;;13.47;100.00
23677;BME280;31493;49.058;12.190;2022-07-10T03:32:26;96480.50;;;13.52;100.00
23677;BME280;31493;49.058;12.190;2022-07-10T03:34:53;96482.44;;;13.37;100.00
23677;BME280;31493;49.058;12.190;2022-07-10T03:37:22;96488.19;;;13.29;100.00
23677;BME280;31493;49.058;12.190;2022-07-10T03:39:49;96490.91;;;13.28;100.00
23677;BME280;31493;49.058;12.190;2022-07-10T03:42:16;96480.19;;;13.32;100.00
23677;BME280;31493;49.058;12.190;2022-07-10T03:44:43;96478.50;;;13.31;100.00
23677;BME280;31493;49.058;12.190;2022-07-10T03:47:11;96471.31;;;13.35;100.00
23677;BME280;31493;49.058;12.190;2022-07-10T03:49:38;96471.56;;;13.19;100.00
23677;BME280;31493;49.058;12.190;2022-07-10T03:52:06;96482.50;;;13.24;100.00
23677;BME280;31493;49.058;12.190;2022-07-10T03:54:34;96476.34;;;13.25;100.00
23677;BME280;31493;49.058;12.190;2022-07-10T03:57:02;96475.84;;;13.20;100.00
23677;BME280;31493;49.058;12.190;2022-07-10T03:59:47;96483.13;;;13.15;100.00
23677;BME280;31493;49.058;12.190;2022-07-10T04:02:14;96489.09;;;13.04;100.00
23677;BME280;31493;49.058;12.190;2022-07-10T04:04:41;96489.09;;;13.04;100.00
23677;BME280;31493;49.058;12.190;2022-07-10T04:07:08;96482.81;;;13.07;100.00
23677;BME280;31493;49.058;12.190;2022-07-10T04:09:38;96479.91;;;13.11;100.00
23677;BME280;31493;49.058;12.190;2022-07-10T04:12:05;96480.41;;;13.16;100.00
23677;BME280;31493;49.058;12.190;2022-07-10T04:14:32;96497.59;;;13.06;100.00
23677;BME280;31493;49.058;12.190;2022-07-10T04:17:00;96492.59;;;13.16;100.00
23677;BME280;31493;49.058;12.190;2022-07-10T04:19:28;96485.50;;;13.18;100.00
23677;BME280;31493;49.058;12.190;2022-07-10T04:21:55;96497.44;;;13.33;100.00
23677;BME280;31493;49.058;12.190;2022-07-10T04:24:22;96488.25;;;13.40;100.00
23677;BME280;31493;49.058;12.190;2022-07-10T04:26:50;96475.91;;;13.31;100.00
23677;BME280;31493;49.058;12.190;2022-07-10T04:29:17;96465.50;;;13.31;100.00
23677;BME280;31493;49.058;12.190;2022-07-10T04:31:45;96467.81;;;13.47;100.00
23677;BME280;31493;49.058;12.190;2022-07-10T04:34:12;96460.69;;;13.38;100.00
23677;BME280;31493;49.058;12.190;2022-07-10T04:36:39;96468.66;;;13.48;100.00
23677;BME280;31493;49.058;12.190;2022-07-10T04:39:06;96485.66;;;13.40;100.00
23677;BME280;31493;49.058;12.190;2022-07-10T04:41:33;96485.31;;;13.45;100.00
23677;BME280;31493;49.058;12.190;2022-07-10T04:44:01;96484.09;;;13.38;100.00
23677;BME280;31493;49.058;12.190;2022-07-10T04:46:28;96478.84;;;13.27;100.00
23677;BME280;31493;49.058;12.190;2022-07-10T04:48:55;96488.50;;;13.25;100.00
23677;BME280;31493;49.058;12.190;2022-07-10T04:51:22;96488.38;;;13.02;100.00
23677;BME280;31493;49.058;12.190;2022-07-10T04:53:49;96477.81;;;13.16;100.00
23677;BME280;31493;49.058;12.190;2022-07-10T04:56:16;96477.19;;;13.13;100.00
23677;BME280;31493;49.058;12.190;2022-07-10T04:58:43;96470.44;;;13.47;100.00
23677;BME280;31493;49.058;12.190;2022-07-10T05:01:12;96474.31;;;13.41;100.00
23677;BME280;31493;49.058;12.190;2022-07-10T05:03:39;96477.00;;;13.64;100.00
23677;BME280;31493;49.058;12.190;2022-07-10T05:06:06;96484.03;;;13.86;100.00
23677;BME280;31493;49.058;12.190;2022-07-10T05:08:33;96477.50;;;13.80;99.73
23677;BME280;31493;49.058;12.190;2022-07-10T05:11:00;96474.72;;;13.59;99.79
23677;BME280;31493;49.058;12.190;2022-07-10T05:13:27;96488.41;;;13.50;98.33
23677;BME280;31493;49.058;12.190;2022-07-10T05:15:54;96476.69;;;13.44;99.14
23677;BME280;31493;49.058;12.190;2022-07-10T05:18:23;96484.31;;;13.59;96.93
23677;BME280;31493;49.058;12.190;2022-07-10T05:20:50;96481.84;;;13.57;97.39
23677;BME280;31493;49.058;12.190;2022-07-10T05:23:17;96477.59;;;13.67;96.02
23677;BME280;31493;49.058;12.190;2022-07-10T05:25:44;96485.44;;;13.79;95.75
23677;BME280;31493;49.058;12.190;2022-07-10T05:28:11;96489.41;;;13.60;94.93
23677;BME280;31493;49.058;12.190;2022-07-10T05:30:40;96487.13;;;13.56;95.20
23677;BME280;31493;49.058;12.190;2022-07-10T05:33:07;96494.59;;;13.60;95.47
23677;BME280;31493;49.058;12.190;2022-07-10T05:35:35;96499.41;;;13.54;94.18
23677;BME280;31493;49.058;12.190;2022-07-10T05:38:02;96492.56;;;13.53;93.61
23677;BME280;31493;49.058;12.190;2022-07-10T05:40:30;96501.81;;;13.33;92.83
23677;BME280;31493;49.058;12.190;2022-07-10T05:42:57;96507.72;;;13.35;92.06
23677;BME280;31493;49.058;12.190;2022-07-10T05:45:24;96505.06;;;13.48;91.27
23677;BME280;31493;49.058;12.190;2022-07-10T05:47:51;96514.50;;;13.25;91.49
23677;BME280;31493;49.058;12.190;2022-07-10T05:50:18;96518.28;;;13.21;91.17
23677;BME280;31493;49.058;12.190;2022-07-10T05:52:47;96524.81;;;13.26;91.80
23677;BME280;31493;49.058;12.190;2022-07-10T05:55:14;96523.78;;;13.29;91.05
23677;BME280;31493;49.058;12.190;2022-07-10T05:57:41;96523.88;;;13.27;91.52
23677;BME280;31493;49.058;12.190;2022-07-10T06:00:09;96526.50;;;13.14;92.61
23677;BME280;31493;49.058;12.190;2022-07-10T06:02:36;96528.59;;;13.09;92.41
23677;BME280;31493;49.058;12.190;2022-07-10T06:05:04;96521.38;;;13.26;92.55
23677;BME280;31493;49.058;12.190;2022-07-10T06:07:31;96524.66;;;13.40;92.45
23677;BME280;31493;49.058;12.190;2022-07-10T06:09:59;96512.97;;;13.22;92.74
23677;BME280;31493;49.058;12.190;2022-07-10T06:12:27;96538.56;;;13.15;92.83
23677;BME280;31493;49.058;12.190;2022-07-10T06:14:54;96539.38;;;13.16;89.25
23677;BME280;31493;49.058;12.190;2022-07-10T06:17:21;96529.44;;;12.97;91.87
23677;BME280;31493;49.058;12.190;2022-07-10T06:19:48;96528.16;;;13.15;91.28
23677;BME280;31493;49.058;12.190;2022-07-10T06:22:15;96525.44;;;13.17;90.96
23677;BME280;31493;49.058;12.190;2022-07-10T06:24:57;96528.28;;;13.14;89.73
23677;BME280;31493;49.058;12.190;2022-07-10T06:27:26;96532.31;;;13.05;88.85
23677;BME280;31493;49.058;12.190;2022-07-10T06:29:53;96527.84;;;13.07;87.94
23677;BME280;31493;49.058;12.190;2022-07-10T06:32:21;96519.41;;;12.80;86.11
23677;BME280;31493;49.058;12.190;2022-07-10T06:34:48;96529.75;;;12.93;86.30
23677;BME280;31493;49.058;12.190;2022-07-10T06:37:15;96536.81;;;13.03;85.31
23677;BME280;31493;49.058;12.190;2022-07-10T06:39:42;96525.88;;;13.11;86.53
23677;BME280;31493;49.058;12.190;2022-07-10T06:42:09;96519.13;;;13.21;85.00
23677;BME280;31493;49.058;12.190;2022-07-10T06:44:37;96530.13;;;13.12;85.34
23677;BME280;31493;49.058;12.190;2022-07-10T06:47:06;96526.38;;;13.29;84.92
23677;BME280;31493;49.058;12.190;2022-07-10T06:49:51;96525.66;;;13.14;86.05
23677;BME280;31493;49.058;12.190;2022-07-10T06:52:18;96529.41;;;13.23;85.00
23677;BME280;31493;49.058;12.190;2022-07-10T06:54:45;96535.38;;;13.36;85.02
23677;BME280;31493;49.058;12.190;2022-07-10T06:57:13;96533.19;;;13.42;85.69
23677;BME280;31493;49.058;12.190;2022-07-10T06:59:42;96539.06;;;13.33;86.39
23677;BME280;31493;49.058;12.190;2022-07-10T07:02:09;96541.97;;;13.29;85.66
23677;BME280;31493;49.058;12.190;2022-07-10T07:04:36;96541.59;;;13.46;85.28
23677;BME280;31493;49.058;12.190;2022-07-10T07:07:04;96550.13;;;13.48;86.32
23677;BME280;31493;49.058;12.190;2022-07-10T07:09:31;96553.16;;;13.42;85.96
23677;BME280;31493;49.058;12.190;2022-07-10T07:11:58;96557.41;;;13.43;85.39
23677;BME280;31493;49.058;12.190;2022-07-10T07:14:25;96553.28;;;13.64;87.03
23677;BME280;31493;49.058;12.190;2022-07-10T07:16:53;96561.66;;;13.57;86.93
23677;BME280;31493;49.058;12.190;2022-07-10T07:19:26;96547.78;;;13.56;86.50
23677;BME280;31493;49.058;12.190;2022-07-10T07:21:58;96552.84;;;13.70;85.95
23677;BME280;31493;49.058;12.190;2022-07-10T07:24:42;96544.56;;;14.01;87.30
23677;BME280;31493;49.058;12.190;2022-07-10T07:27:10;96542.94;;;14.22;85.38
23677;BME280;31493;49.058;12.190;2022-07-10T07:29:37;96542.63;;;13.91;85.28
23677;BME280;31493;49.058;12.190;2022-07-10T07:32:07;96550.75;;;14.22;83.32
23677;BME280;31493;49.058;12.190;2022-07-10T07:34:34;96552.94;;;14.04;84.40
23677;BME280;31493;49.058;12.190;2022-07-10T07:37:01;96552.00;;;13.94;84.20
23677;BME280;31493;49.058;12.190;2022-07-10T07:39:28;96531.19;;;14.63;83.49
23677;BME280;31493;49.058;12.190;2022-07-10T07:41:55;96554.03;;;14.48;83.62
23677;BME280;31493;49.058;12.190;2022-07-10T07:44:22;96561.44;;;14.41;82.97
23677;BME280;31493;49.058;12.190;2022-07-10T07:46:49;96565.94;;;14.39;82.28
23677;BME280;31493;49.058;12.190;2022-07-10T07:49:18;96558.34;;;14.36;83.15
23677;BME280;31493;49.058;12.190;2022-07-10T07:51:45;96558.19;;;14.50;84.02
23677;BME280;31493;49.058;12.190;2022-07-10T07:54:13;96561.16;;;14.57;83.79
23677;BME280;31493;49.058;12.190;2022-07-10T07:56:41;96560.22;;;14.58;82.34
23677;BME280;31493;49.058;12.190;2022-07-10T07:59:08;96555.13;;;14.79;82.84
23677;BME280;31493;49.058;12.190;2022-07-10T08:01:36;96543.03;;;15.23;80.75
23677;BME280;31493;49.058;12.190;2022-07-10T08:04:03;96553.25;;;14.81;77.11
23677;BME280;31493;49.058;12.190;2022-07-10T08:06:32;96557.13;;;14.53;74.10
23677;BME280;31493;49.058;12.190;2022-07-10T08:08:59;96556.06;;;14.56;73.74
23677;BME280;31493;49.058;12.190;2022-07-10T08:11:26;96549.91;;;14.79;70.25
23677;BME280;31493;49.058;12.190;2022-07-10T08:13:53;96551.44;;;15.15;68.59
23677;BME280;31493;49.058;12.190;2022-07-10T08:16:20;96541.31;;;15.33;67.62
23677;BME280;31493;49.058;12.190;2022-07-10T08:18:47;96555.31;;;15.43;67.51
23677;BME280;31493;49.058;12.190;2022-07-10T08:21:14;96548.09;;;15.47;65.62
23677;BME280;31493;49.058;12.190;2022-07-10T08:23:42;96562.94;;;15.24;64.68
23677;BME280;31493;49.058;12.190;2022-07-10T08:26:09;96566.63;;;15.10;62.80
23677;BME280;31493;49.058;12.190;2022-07-10T08:28:36;96565.69;;;15.22;63.36
23677;BME280;31493;49.058;12.190;2022-07-10T08:31:04;96532.91;;;15.84;63.03
23677;BME280;31493;49.058;12.190;2022-07-10T08:33:31;96540.78;;;15.62;60.37
23677;BME280;31493;49.058;12.190;2022-07-10T08:35:58;96549.25;;;15.43;62.08
23677;BME280;31493;49.058;12.190;2022-07-10T08:38:26;96549.50;;;15.40;60.50
23677;BME280;31493;49.058;12.190;2022-07-10T08:40:55;96552.41;;;15.57;61.24
23677;BME280;31493;49.058;12.190;2022-07-10T08:43:23;96546.13;;;15.60;60.97
23677;BME280;31493;49.058;12.190;2022-07-10T08:45:51;96561.63;;;15.41;59.66
23677;BME280;31493;49.058;12.190;2022-07-10T08:48:22;96559.97;;;15.17;60.82
23677;BME280;31493;49.058;12.190;2022-07-10T08:50:52;96553.06;;;15.39;59.88
23677;BME280;31493;49.058;12.190;2022-07-10T08:53:24;96545.25;;;15.27;62.55
23677;BME280;31493;49.058;12.190;2022-07-10T08:55:52;96556.78;;;15.14;61.88
23677;BME280;31493;49.058;12.190;2022-07-10T08:58:21;96545.59;;;15.34;60.96
23677;BME280;31493;49.058;12.190;2022-07-10T09:00:49;96534.13;;;15.80;61.73
23677;BME280;31493;49.058;12.190;2022-07-10T09:03:16;96559.72;;;15.31;60.39
23677;BME280;31493;49.058;12.190;2022-07-10T09:05:43;96558.06;;;15.19;59.30
23677;BME280;31493;49.058;12.190;2022-07-10T09:08:21;96559.56;;;15.44;58.87
23677;BME280;31493;49.058;12.190;2022-07-10T09:10:48;96543.13;;;15.76;59.90
23677;BME280;31493;49.058;12.190;2022-07-10T09:13:16;96543.19;;;15.53;57.27
23677;BME280;31493;49.058;12.190;2022-07-10T09:15:49;96543.78;;;15.46;57.90
23677;BME280;31493;49.058;12.190;2022-07-10T09:18:19;96535.63;;;15.82;57.64
23677;BME280;31493;49.058;12.190;2022-07-10T09:20:46;96541.56;;;15.84;56.55
23677;BME280;31493;49.058;12.190;2022-07-10T09:23:18;96557.31;;;15.62;57.07
23677;BME280;31493;49.058;12.190;2022-07-10T09:25:46;96558.03;;;15.53;56.26
23677;BME280;31493;49.058;12.190;2022-07-10T09:28:17;96550.56;;;15.92;56.80
23677;BME280;31493;49.058;12.190;2022-07-10T09:30:44;96541.72;;;16.04;54.41
23677;BME280;31493;49.058;12.190;2022-07-10T09:33:20;96550.63;;;16.01;55.00
23677;BME280;31493;49.058;12.190;2022-07-10T09:36:09;96561.56;;;15.95;55.68
23677;BME280;31493;49.058;12.190;2022-07-10T09:38:48;96556.25;;;16.18;56.42
23677;BME280;31493;49.058;12.190;2022-07-10T09:41:17;96548.34;;;16.29;56.32
23677;BME280;31493;49.058;12.190;2022-07-10T09:43:45;96559.41;;;15.79;56.13
23677;BME280;31493;49.058;12.190;2022-07-10T09:46:12;96571.09;;;15.96;56.69
23677;BME280;31493;49.058;12.190;2022-07-10T09:48:41;96573.78;;;15.63;54.98
23677;BME280;31493;49.058;12.190;2022-07-10T09:51:09;96564.38;;;15.71;56.83
23677;BME280;31493;49.058;12.190;2022-07-10T09:53:38;96573.22;;;15.48;56.56
23677;BME280;31493;49.058;12.190;2022-07-10T09:56:07;96563.00;;;15.67;56.08
23677;BME280;31493;49.058;12.190;2022-07-10T09:58:35;96551.47;;;15.70;56.02
23677;BME280;31493;49.058;12.190;2022-07-10T10:01:03;96560.13;;;15.70;55.54
23677;BME280;31493;49.058;12.190;2022-07-10T10:03:34;96548.91;;;15.91;55.41
23677;BME280;31493;49.058;12.190;2022-07-10T10:06:09;96554.63;;;15.84;55.65
23677;BME280;31493;49.058;12.190;2022-07-10T10:08:44;96566.78;;;15.63;55.74
23677;BME280;31493;49.058;12.190;2022-07-10T10:11:18;96565.41;;;15.37;56.39
23677;BME280;31493;49.058;12.190;2022-07-10T10:13:46;96551.56;;;15.79;56.81
23677;BME280;31493;49.058;12.190;2022-07-10T10:16:15;96557.09;;;15.86;55.62
23677;BME280;31493;49.058;12.190;2022-07-10T10:18:43;96566.06;;;15.72;55.86
23677;BME280;31493;49.058;12.190;2022-07-10T10:21:27;96566.09;;;15.93;56.58
23677;BME280;31493;49.058;12.190;2022-07-10T10:23:55;96566.00;;;15.83;56.06
23677;BME280;31493;49.058;12.190;2022-07-10T10:26:23;96568.34;;;15.98;55.60
23677;BME280;31493;49.058;12.190;2022-07-10T10:28:52;96559.81;;;16.17;55.20
23677;BME280;31493;49.058;12.190;2022-07-10T10:31:20;96568.41;;;15.75;56.07
23677;BME280;31493;49.058;12.190;2022-07-10T10:33:47;96574.94;;;15.58;56.39
23677;BME280;31493;49.058;12.190;2022-07-10T10:36:46;96575.38;;;16.18;56.24
23677;BME280;31493;49.058;12.190;2022-07-10T10:39:18;96570.50;;;16.13;57.69
23677;BME280;31493;49.058;12.190;2022-07-10T10:41:50;96566.06;;;16.46;56.75
23677;BME280;31493;49.058;12.190;2022-07-10T10:44:25;96573.44;;;16.20;57.03
23677;BME280;31493;49.058;12.190;2022-07-10T10:46:56;96575.22;;;16.20;56.26
23677;BME280;31493;49.058;12.190;2022-07-10T10:49:46;96584.66;;;15.79;56.45
23677;BME280;31493;49.058;12.190;2022-07-10T10:52:16;96584.19;;;15.85;56.41
23677;BME280;31493;49.058;12.190;2022-07-10T10:55:05;96570.41;;;15.83;55.99
23677;BME280;31493;49.058;12.190;2022-07-10T10:57:41;96566.38;;;16.11;56.82
23677;BME280;31493;49.058;12.190;2022-07-10T11:00:28;96566.78;;;16.27;55.55
23677;BME280;31493;49.058;12.190;2022-07-10T11:03:20;96537.16;;;16.89;56.71
23677;BME280;31493;49.058;12.190;2022-07-10T11:05:48;96570.09;;;16.29;54.56
23677;BME280;31493;49.058;12.190;2022-07-10T11:08:42;96561.69;;;16.47;54.87
23677;BME280;31493;49.058;12.190;2022-07-10T11:11:39;96527.66;;;17.38;55.29
23677;BME280;31493;49.058;12.190;2022-07-10T11:14:08;96539.84;;;17.18;53.15
23677;BME280;31493;49.058;12.190;2022-07-10T11:16:46;96516.00;;;18.10;52.37
23677;BME280;31493;49.058;12.190;2022-07-10T11:19:29;96544.72;;;17.33;52.67
23677;BME280;31493;49.058;12.190;2022-07-10T11:22:26;96557.44;;;16.55;54.00
23677;BME280;31493;49.058;12.190;2022-07-10T11:25:12;96553.69;;;16.48;54.53
23677;BME280;31493;49.058;12.190;2022-07-10T11:28:04;96566.13;;;16.56;54.18
23677;BME280;31493;49.058;12.190;2022-07-10T11:30:48;96560.44;;;16.51;53.95
23677;BME280;31493;49.058;12.190;2022-07-10T11:33:16;96541.66;;;16.78;54.62
23677;BME280;31493;49.058;12.190;2022-07-10T11:35:45;96538.59;;;16.73;50.25
23677;BME280;31493;49.058;12.190;2022-07-10T11:38:18;96519.81;;;17.38;48.86
23677;BME280;31493;49.058;12.190;2022-07-10T11:40:46;96534.44;;;17.51;47.65
23677;BME280;31493;49.058;12.190;2022-07-10T11:43:14;96530.41;;;17.37;48.27
23677;BME280;31493;49.058;12.190;2022-07-10T11:45:42;96528.31;;;17.31;49.31
23677;BME280;31493;49.058;12.190;2022-07-10T11:48:16;96544.81;;;16.81;50.40
23677;BME280;31493;49.058;12.190;2022-07-10T11:50:44;96557.72;;;16.52;49.57
23677;BME280;31493;49.058;12.190;2022-07-10T11:53:11;96549.38;;;17.19;49.86
23677;BME280;31493;49.058;12.190;2022-07-10T11:55:39;96536.19;;;16.90;48.69
23677;BME280;31493;49.058;12.190;2022-07-10T11:58:15;96546.78;;;16.68;50.11
23677;BME280;31493;49.058;12.190;2022-07-10T12:00:42;96558.44;;;16.33;50.90
23677;BME280;31493;49.058;12.190;2022-07-10T12:03:17;96560.84;;;16.46;51.30
23677;BME280;31493;49.058;12.190;2022-07-10T12:05:46;96554.66;;;16.26;51.94
23677;BME280;31493;49.058;12.190;2022-07-10T12:08:14;96562.19;;;16.41;51.54
23677;BME280;31493;49.058;12.190;2022-07-10T12:10:42;96550.31;;;16.36;50.60
23677;BME280;31493;49.058;12.190;2022-07-10T12:13:10;96533.19;;;16.95;51.30
23677;BME280;31493;49.058;12.190;2022-07-10T12:15:40;96535.66;;;16.97;50.49
23677;BME280;31493;49.058;12.190;2022-07-10T12:18:09;96545.41;;;17.25;48.43
23677;BME280;31493;49.058;12.190;2022-07-10T12:20:41;96546.88;;;17.18;48.42
23677;BME280;31493;49.058;12.190;2022-07-10T12:23:11;96551.81;;;17.11;48.26
23677;BME280;31493;49.058;12.190;2022-07-10T12:25:41;96554.66;;;16.99;48.64
23677;BME280;31493;49.058;12.190;2022-07-10T12:28:09;96547.13;;;17.05;49.13
23677;BME280;31493;49.058;12.190;2022-07-10T12:30:42;96559.59;;;16.92;49.51
23677;BME280;31493;49.058;12.190;2022-07-10T12:33:11;96549.38;;;17.29;48.63
23677;BME280;31493;49.058;12.190;2022-07-10T12:35:53;96551.56;;;17.24;49.53
23677;BME280;31493;49.058;12.190;2022-07-10T12:38:21;96535.16;;;17.91;48.03
23677;BME280;31493;49.058;12.190;2022-07-10T12:40:49;96535.59;;;17.96;47.06
23677;BME280;31493;49.058;12.190;2022-07-10T12:43:26;96549.25;;;17.90;46.41
23677;BME280;31493;49.058;12.190;2022-07-10T12:46:15;96545.72;;;17.61;46.87
23677;BME280;31493;49.058;12.190;2022-07-10T12:49:00;96553.88;;;17.58;47.13
23677;BME280;31493;49.058;12.190;2022-07-10T12:51:28;96531.94;;;18.46;47.39
23677;BME280;31493;49.058;12.190;2022-07-10T12:53:56;96549.91;;;17.73;47.05
23677;BME280;31493;49.058;12.190;2022-07-10T12:56:27;96562.50;;;17.49;46.04